Time;durP1;ratioP1;P1;durP2;ratioP2;P2;SDS_P1;SDS_P2;PMS_P1;PMS_P2;Temp;Humidity;BMP_temperature;BMP_pressure;BME280_temperature;BME280_humidity;BME280_pressure;Samples;Min_cycle;Max_cycle;Signal;HPM_P1;HPM_P2
2022/02/05 00:01:09;;;;;;;23.73;21.92;;;;;;;;;;5072893;28;20188;-76
2022/02/05 00:03:42;;;;;;;21.80;20.40;;;;;;;;;;5072810;28;20211;-76
2022/02/05 00:06:11;;;;;;;26.30;24.30;;;;;;;;;;5072270;28;20578;-75
2022/02/05 00:08:53;;;;;;;24.05;22.08;;;;;;;;;;5072680;28;20198;-76
2022/02/05 00:20:18;;;;;;;21.13;19.48;;;;;;;;;;5072312;28;20222;-77
2022/02/05 00:42:11;;;;;;;23.70;21.58;;;;;;;;;;5071477;28;20262;-77
2022/02/05 00:44:38;;;;;;;22.90;21.30;;;;;;;;;;5072922;28;20312;-76
2022/02/05 00:47:06;;;;;;;25.77;23.27;;;;;;;;;;5075741;28;20197;-77
2022/02/05 00:49:33;;;;;;;27.15;24.42;;;;;;;;;;5076059;28;20234;-76
2022/02/05 00:52:11;;;;;;;23.38;21.50;;;;;;;;;;5076012;28;20192;-77
2022/02/05 00:54:40;;;;;;;25.95;23.67;;;;;;;;;;5075628;28;20904;-77
2022/02/05 00:59:49;;;;;;;22.27;20.58;;;;;;;;;;5062322;28;20237;-77
2022/02/05 01:02:16;;;;;;;21.88;20.38;;;;;;;;;;5075531;28;20572;-77
2022/02/05 01:04:44;;;;;;;25.25;23.20;;;;;;;;;;5075527;28;20250;-76
2022/02/05 01:07:13;;;;;;;26.20;23.83;;;;;;;;;;5075804;28;20190;-76
2022/02/05 01:09:43;;;;;;;22.02;20.50;;;;;;;;;;5075580;28;20195;-77
2022/02/05 01:12:10;;;;;;;22.55;20.95;;;;;;;;;;5075512;28;20199;-77
2022/02/05 01:14:46;;;;;;;22.07;20.20;;;;;;;;;;5074862;28;20200;-77
2022/02/05 01:17:15;;;;;;;22.70;21.10;;;;;;;;;;5074149;28;20427;-77
2022/02/05 01:22:30;;;;;;;24.15;22.17;;;;;;;;;;5075297;28;20276;-77
2022/02/05 01:24:58;;;;;;;22.58;21.13;;;;;;;;;;5075386;28;20186;-78
2022/02/05 01:27:37;;;;;;;26.10;23.67;;;;;;;;;;5075136;28;20690;-77
2022/02/05 01:30:15;;;;;;;23.90;22.20;;;;;;;;;;5075297;28;20560;-77
2022/02/05 01:32:50;;;;;;;20.98;19.67;;;;;;;;;;5075285;28;20250;-76
2022/02/05 01:35:25;;;;;;;24.45;22.63;;;;;;;;;;5075152;28;20190;-76
2022/02/05 01:54:35;;;;;;;23.55;21.95;;;;;;;;;;5063693;28;20688;-76
2022/02/05 01:57:08;;;;;;;22.48;21.02;;;;;;;;;;5074328;28;20232;-76
2022/02/05 01:59:53;;;;;;;21.70;20.40;;;;;;;;;;5074722;28;20311;-76
2022/02/05 02:05:08;;;;;;;20.35;19.00;;;;;;;;;;5074408;28;20215;-76
2022/02/05 02:13:29;;;;;;;25.17;22.75;;;;;;;;;;5073663;28;20212;-77
2022/02/05 02:16:06;;;;;;;22.73;21.15;;;;;;;;;;5074506;28;20184;-77
2022/02/05 02:18:44;;;;;;;22.95;21.55;;;;;;;;;;5072909;28;20268;-76
2022/02/05 02:21:23;;;;;;;21.50;19.80;;;;;;;;;;5074089;28;20195;-77
2022/02/05 02:24:03;;;;;;;23.48;21.88;;;;;;;;;;5073903;28;20191;-76
2022/02/05 02:26:42;;;;;;;21.90;20.35;;;;;;;;;;5074196;28;20461;-76
2022/02/05 02:29:14;;;;;;;22.83;21.23;;;;;;;;;;5072633;28;20208;-76
2022/02/05 02:31:45;;;;;;;21.67;20.27;;;;;;;;;;5073966;28;20657;-76
2022/02/05 02:34:18;;;;;;;20.90;19.52;;;;;;;;;;5073842;28;20596;-76
2022/02/05 02:36:51;;;;;;;22.50;20.67;;;;;;;;;;5073970;28;20199;-75
2022/02/05 02:39:23;;;;;;;21.90;20.25;;;;;;;;;;5073568;28;20458;-76
2022/02/05 02:41:55;;;;;;;22.60;21.00;;;;;;;;;;5073539;28;20231;-76
2022/02/05 02:44:22;;;;;;;22.08;20.30;;;;;;;;;;5073334;28;20694;-76
2022/02/05 02:46:49;;;;;;;25.13;23.08;;;;;;;;;;5073810;28;20195;-76
2022/02/05 02:49:23;;;;;;;21.25;19.52;;;;;;;;;;5073357;28;20191;-76
2022/02/05 02:57:24;;;;;;;21.60;20.40;;;;;;;;;;5073079;28;20234;-76
2022/02/05 02:59:55;;;;;;;25.30;23.20;;;;;;;;;;5073518;28;20218;-76
2022/02/05 03:02:25;;;;;;;21.83;20.33;;;;;;;;;;5073522;28;20216;-75
2022/02/05 03:04:54;;;;;;;23.52;21.70;;;;;;;;;;5073388;28;20709;-76
2022/02/05 03:07:23;;;;;;;23.20;21.40;;;;;;;;;;5072851;28;20217;-76
2022/02/05 03:09:50;;;;;;;23.02;21.48;;;;;;;;;;5072963;28;20601;-77
2022/02/05 03:12:19;;;;;;;24.13;22.30;;;;;;;;;;5073034;28;20194;-77
2022/02/05 03:14:46;;;;;;;23.77;21.98;;;;;;;;;;5072906;28;20521;-76
2022/02/05 03:17:18;;;;;;;24.77;22.85;;;;;;;;;;5073340;28;20199;-77
2022/02/05 03:19:47;;;;;;;23.08;21.63;;;;;;;;;;5073208;28;20220;-76
2022/02/05 03:22:15;;;;;;;23.35;21.42;;;;;;;;;;5072954;28;20238;-77
2022/02/05 03:24:44;;;;;;;22.23;20.73;;;;;;;;;;5072787;28;20229;-76
2022/02/05 03:27:13;;;;;;;20.65;19.45;;;;;;;;;;5073118;28;20197;-76
2022/02/05 03:29:42;;;;;;;20.85;19.50;;;;;;;;;;5071379;28;20201;-77
2022/02/05 03:32:10;;;;;;;20.77;19.27;;;;;;;;;;5073044;28;20192;-76
2022/02/05 03:34:37;;;;;;;23.75;21.98;;;;;;;;;;5072740;28;20192;-76
2022/02/05 03:37:05;;;;;;;20.73;19.42;;;;;;;;;;5055046;28;20199;-77
2022/02/05 03:39:32;;;;;;;21.60;20.00;;;;;;;;;;5072986;28;20267;-78
2022/02/05 03:42:01;;;;;;;21.45;20.00;;;;;;;;;;5072609;28;20699;-76
2022/02/05 03:44:29;;;;;;;21.35;19.88;;;;;;;;;;5072586;28;20553;-76
2022/02/05 03:46:56;;;;;;;23.40;21.38;;;;;;;;;;5073127;28;20193;-77
2022/02/05 03:49:24;;;;;;;20.83;19.42;;;;;;;;;;5072971;28;20521;-76
2022/02/05 03:51:53;;;;;;;20.73;19.00;;;;;;;;;;5072533;28;20278;-76
2022/02/05 03:54:21;;;;;;;22.50;20.85;;;;;;;;;;5072848;28;20263;-76
2022/02/05 03:56:49;;;;;;;21.85;20.45;;;;;;;;;;5072525;28;20286;-76
2022/02/05 03:59:18;;;;;;;21.63;20.13;;;;;;;;;;5072463;28;20700;-77
2022/02/05 04:01:45;;;;;;;20.27;18.95;;;;;;;;;;5072532;28;20200;-77
2022/02/05 04:04:12;;;;;;;21.08;19.77;;;;;;;;;;5071150;28;20200;-76
2022/02/05 04:06:40;;;;;;;21.00;19.70;;;;;;;;;;5072717;28;20194;-76
2022/02/05 04:09:15;;;;;;;22.40;20.90;;;;;;;;;;5072766;28;20196;-76
2022/02/05 04:11:57;;;;;;;22.02;20.52;;;;;;;;;;5072500;28;20193;-75
2022/02/05 04:17:11;;;;;;;22.77;21.27;;;;;;;;;;5072440;28;20198;-76
2022/02/05 04:19:38;;;;;;;23.40;21.40;;;;;;;;;;5074608;28;20700;-76
2022/02/05 04:22:06;;;;;;;20.27;18.65;;;;;;;;;;5076645;28;20196;-76
2022/02/05 04:24:33;;;;;;;34.35;31.40;;;;;;;;;;5076606;28;20265;-76
2022/02/05 04:27:00;;;;;;;22.52;21.00;;;;;;;;;;5076500;28;20230;-75
2022/02/05 04:29:29;;;;;;;22.20;20.58;;;;;;;;;;5076277;28;20184;-77
2022/02/05 04:31:57;;;;;;;22.75;20.98;;;;;;;;;;5076153;28;20626;-76
2022/02/05 04:34:25;;;;;;;24.15;22.23;;;;;;;;;;5076073;28;20196;-77
2022/02/05 04:36:52;;;;;;;23.30;21.33;;;;;;;;;;5076191;28;20214;-76
2022/02/05 04:39:21;;;;;;;20.67;19.30;;;;;;;;;;5076266;28;20274;-76
2022/02/05 04:41:53;;;;;;;24.27;22.42;;;;;;;;;;5075866;28;20191;-76
2022/02/05 04:44:41;;;;;;;21.73;19.98;;;;;;;;;;5076154;28;20200;-76
2022/02/05 04:47:39;;;;;;;24.08;21.95;;;;;;;;;;5075838;28;20657;-77
2022/02/05 04:50:32;;;;;;;22.25;20.85;;;;;;;;;;5075814;28;20637;-76
2022/02/05 05:01:42;;;;;;;26.35;24.10;;;;;;;;;;5075943;28;20292;-77
2022/02/05 05:04:23;;;;;;;24.92;22.50;;;;;;;;;;5075538;28;20197;-76
2022/02/05 05:09:41;;;;;;;24.08;22.05;;;;;;;;;;5075081;28;20683;-76
2022/02/05 05:12:22;;;;;;;23.50;21.60;;;;;;;;;;5075605;28;20196;-77
2022/02/05 05:20:22;;;;;;;24.05;22.15;;;;;;;;;;5075314;28;20226;-76
2022/02/05 05:22:49;;;;;;;24.77;22.80;;;;;;;;;;5073900;28;20197;-77
2022/02/05 05:25:17;;;;;;;23.52;21.67;;;;;;;;;;5075228;28;20188;-76
2022/02/05 05:27:44;;;;;;;22.65;20.83;;;;;;;;;;5075173;28;20188;-78
2022/02/05 05:30:12;;;;;;;24.33;22.27;;;;;;;;;;5074570;28;20445;-76
2022/02/05 05:32:39;;;;;;;23.20;21.23;;;;;;;;;;5075356;28;20192;-76
2022/02/05 05:35:08;;;;;;;22.83;20.55;;;;;;;;;;5073641;28;20529;-76
2022/02/05 05:37:37;;;;;;;23.60;22.00;;;;;;;;;;5075286;28;20194;-76
2022/02/05 05:40:04;;;;;;;22.95;21.35;;;;;;;;;;5075114;28;20226;-76
2022/02/05 05:42:36;;;;;;;21.38;20.08;;;;;;;;;;5075006;28;20223;-76
2022/02/05 05:45:27;;;;;;;23.65;21.88;;;;;;;;;;5075016;28;20195;-76
2022/02/05 05:47:57;;;;;;;22.50;21.05;;;;;;;;;;5074724;28;20189;-78
2022/02/05 05:50:58;;;;;;;23.65;21.60;;;;;;;;;;5074948;28;20215;-79
2022/02/05 05:53:27;;;;;;;23.73;21.83;;;;;;;;;;5074953;28;20197;-79
2022/02/05 05:55:55;;;;;;;22.85;20.85;;;;;;;;;;5074918;28;20198;-78
2022/02/05 05:58:22;;;;;;;22.00;20.27;;;;;;;;;;5074290;28;20237;-79
2022/02/05 06:00:50;;;;;;;23.95;21.92;;;;;;;;;;5074729;28;20331;-79
2022/02/05 06:03:18;;;;;;;23.90;21.90;;;;;;;;;;5074343;28;20253;-78
2022/02/05 06:05:45;;;;;;;21.52;20.25;;;;;;;;;;5074654;28;20195;-77
2022/02/05 06:08:14;;;;;;;22.37;20.83;;;;;;;;;;5074371;28;20663;-76
2022/02/05 06:10:44;;;;;;;21.92;20.48;;;;;;;;;;5074213;28;20435;-76
2022/02/05 06:13:12;;;;;;;19.80;18.57;;;;;;;;;;5074377;28;20223;-76
2022/02/05 06:15:41;;;;;;;24.58;22.50;;;;;;;;;;5074147;28;20458;-77
2022/02/05 06:18:09;;;;;;;22.02;20.38;;;;;;;;;;5074475;28;20242;-76
2022/02/05 06:20:37;;;;;;;23.35;21.70;;;;;;;;;;5073944;28;20225;-76
2022/02/05 06:23:04;;;;;;;22.45;20.95;;;;;;;;;;5074381;28;20629;-76
2022/02/05 06:25:33;;;;;;;22.50;21.00;;;;;;;;;;5073968;28;20677;-76
2022/02/05 06:28:01;;;;;;;25.02;22.48;;;;;;;;;;5072673;28;20207;-76
2022/02/05 06:30:29;;;;;;;22.20;20.60;;;;;;;;;;5073901;28;20655;-77
2022/02/05 06:32:56;;;;;;;24.47;22.30;;;;;;;;;;5073868;28;20188;-76
2022/02/05 06:35:23;;;;;;;23.27;21.40;;;;;;;;;;5073767;28;20439;-77
2022/02/05 06:37:51;;;;;;;22.73;21.23;;;;;;;;;;5073726;28;20200;-76
2022/02/05 06:40:18;;;;;;;22.67;21.15;;;;;;;;;;5073632;28;20218;-76
2022/02/05 06:42:46;;;;;;;21.90;20.52;;;;;;;;;;5072637;28;20234;-76
2022/02/05 06:45:16;;;;;;;24.73;22.73;;;;;;;;;;5073497;28;20226;-77
2022/02/05 06:47:43;;;;;;;24.60;22.60;;;;;;;;;;5073523;28;20638;-77
2022/02/05 06:50:13;;;;;;;24.77;22.30;;;;;;;;;;5073459;28;20245;-77
2022/02/05 06:52:41;;;;;;;24.27;22.00;;;;;;;;;;5073477;28;20550;-77
2022/02/05 06:55:09;;;;;;;23.85;21.95;;;;;;;;;;5073366;28;20200;-78
2022/02/05 06:57:37;;;;;;;24.98;22.80;;;;;;;;;;5073328;28;20251;-79
2022/02/05 07:00:05;;;;;;;24.88;22.73;;;;;;;;;;5073430;28;20216;-78
2022/02/05 07:02:33;;;;;;;25.98;23.42;;;;;;;;;;5073239;28;20222;-79
2022/02/05 07:05:01;;;;;;;21.48;20.13;;;;;;;;;;5073531;28;20192;-79
2022/02/05 07:07:29;;;;;;;22.30;20.70;;;;;;;;;;5073305;28;20208;-79
2022/02/05 07:09:56;;;;;;;23.05;21.35;;;;;;;;;;5073280;28;20202;-78
2022/02/05 07:12:24;;;;;;;24.00;22.27;;;;;;;;;;5073283;28;20196;-79
2022/02/05 07:15:01;;;;;;;25.27;22.75;;;;;;;;;;5073399;28;20193;-79
2022/02/05 07:17:37;;;;;;;23.75;22.10;;;;;;;;;;5073253;28;20204;-78
2022/02/05 07:20:17;;;;;;;27.10;24.25;;;;;;;;;;5071718;28;20254;-78
2022/02/05 07:23:06;;;;;;;27.80;24.35;;;;;;;;;;5072952;28;20189;-78
2022/02/05 07:31:06;;;;;;;22.95;21.10;;;;;;;;;;5072977;28;20317;-78
2022/02/05 07:33:33;;;;;;;24.63;22.73;;;;;;;;;;5073075;28;20250;-78
2022/02/05 07:36:02;;;;;;;26.90;24.33;;;;;;;;;;5072721;28;20654;-78
2022/02/05 07:38:29;;;;;;;21.77;20.30;;;;;;;;;;5073133;28;20192;-79
2022/02/05 07:40:57;;;;;;;25.25;22.85;;;;;;;;;;5072898;28;20224;-78
2022/02/05 07:43:28;;;;;;;22.85;21.20;;;;;;;;;;5072796;28;20248;-79
2022/02/05 07:45:56;;;;;;;26.20;23.95;;;;;;;;;;5072639;28;20203;-78
2022/02/05 07:48:24;;;;;;;22.52;21.10;;;;;;;;;;5072556;28;20239;-78
2022/02/05 07:50:51;;;;;;;24.42;21.98;;;;;;;;;;5072627;28;20203;-78
2022/02/05 07:53:20;;;;;;;23.27;21.63;;;;;;;;;;5072660;28;20194;-78
2022/02/05 07:55:47;;;;;;;24.27;22.17;;;;;;;;;;5072358;28;20204;-78
2022/02/05 07:58:15;;;;;;;24.15;21.92;;;;;;;;;;5072266;28;20232;-78
2022/02/05 08:00:42;;;;;;;23.95;22.20;;;;;;;;;;5072430;28;20226;-78
2022/02/05 08:03:10;;;;;;;24.42;22.50;;;;;;;;;;5071297;28;20200;-78
2022/02/05 08:05:37;;;;;;;22.35;20.70;;;;;;;;;;5072112;28;20625;-78
2022/02/05 08:08:09;;;;;;;22.05;20.65;;;;;;;;;;5072754;28;20203;-79
2022/02/05 08:10:46;;;;;;;23.77;21.80;;;;;;;;;;5072592;28;20197;-78
2022/02/05 08:13:14;;;;;;;27.35;25.20;;;;;;;;;;5072598;28;20572;-79
2022/02/05 08:15:50;;;;;;;25.73;23.42;;;;;;;;;;5071448;28;20196;-78
2022/02/05 08:18:17;;;;;;;22.83;21.10;;;;;;;;;;5072406;28;20194;-78
2022/02/05 08:20:44;;;;;;;26.35;23.70;;;;;;;;;;5072199;28;20453;-80
2022/02/05 08:23:12;;;;;;;24.27;22.42;;;;;;;;;;5072277;28;20315;-78
2022/02/05 08:25:41;;;;;;;25.95;23.60;;;;;;;;;;5072268;28;20196;-78
2022/02/05 08:28:08;;;;;;;22.70;20.88;;;;;;;;;;5072666;28;20194;-80
2022/02/05 08:30:35;;;;;;;25.67;23.35;;;;;;;;;;5071091;28;20252;-78
2022/02/05 08:33:03;;;;;;;25.15;23.00;;;;;;;;;;5072078;28;20641;-78
2022/02/05 08:35:31;;;;;;;22.63;21.13;;;;;;;;;;5072190;28;20192;-78
2022/02/05 08:38:00;;;;;;;22.52;20.75;;;;;;;;;;5072409;28;20243;-78
2022/02/05 08:40:27;;;;;;;22.85;21.52;;;;;;;;;;5071872;28;20225;-80
2022/02/05 08:42:58;;;;;;;25.23;23.20;;;;;;;;;;5071917;28;20220;-78
2022/02/05 08:45:25;;;;;;;22.45;20.90;;;;;;;;;;5072170;28;20211;-78
2022/02/05 08:47:54;;;;;;;25.30;23.02;;;;;;;;;;5072072;28;20231;-79
2022/02/05 08:50:21;;;;;;;23.08;21.27;;;;;;;;;;5072320;28;20197;-80
2022/02/05 08:52:53;;;;;;;23.55;21.80;;;;;;;;;;5072363;28;20193;-80
2022/02/05 08:55:21;;;;;;;21.48;20.15;;;;;;;;;;5071957;28;20288;-80
2022/02/05 08:57:48;;;;;;;26.20;23.77;;;;;;;;;;5071799;28;20243;-80
2022/02/05 09:00:23;;;;;;;23.17;21.15;;;;;;;;;;5071971;28;20233;-79
2022/02/05 09:02:56;;;;;;;21.95;20.65;;;;;;;;;;5071933;28;20202;-79
2022/02/05 09:05:36;;;;;;;23.90;22.10;;;;;;;;;;5073885;28;20188;-79
2022/02/05 09:08:10;;;;;;;23.38;21.67;;;;;;;;;;5075478;28;20193;-79
2022/02/05 09:10:51;;;;;;;26.75;24.35;;;;;;;;;;5075582;28;20210;-80
2022/02/05 09:13:37;;;;;;;26.15;23.55;;;;;;;;;;5075307;28;20222;-80
2022/02/05 09:16:08;;;;;;;25.55;21.45;;;;;;;;;;5075712;28;20199;-79
2022/02/05 09:18:35;;;;;;;26.67;24.08;;;;;;;;;;5075626;28;20185;-79
2022/02/05 09:21:03;;;;;;;25.13;23.02;;;;;;;;;;5075551;28;20218;-79
2022/02/05 09:23:30;;;;;;;27.10;24.85;;;;;;;;;;5074266;28;20200;-79
2022/02/05 09:25:59;;;;;;;24.55;22.35;;;;;;;;;;5075550;28;20551;-79
2022/02/05 09:28:28;;;;;;;25.25;22.88;;;;;;;;;;5075186;28;20188;-79
2022/02/05 09:31:23;;;;;;;25.77;23.67;;;;;;;;;;5075288;28;20296;-79
2022/02/05 09:33:51;;;;;;;24.70;22.92;;;;;;;;;;5074874;28;20204;-79
2022/02/05 09:36:18;;;;;;;23.75;21.70;;;;;;;;;;5073750;28;20208;-79
2022/02/05 09:38:46;;;;;;;23.10;21.50;;;;;;;;;;5075315;28;20263;-79
2022/02/05 09:41:13;;;;;;;21.35;19.85;;;;;;;;;;5074987;28;20227;-79
2022/02/05 09:43:41;;;;;;;22.25;20.85;;;;;;;;;;5075071;28;20233;-78
2022/02/05 09:46:08;;;;;;;24.63;22.70;;;;;;;;;;5074751;28;20238;-79
2022/02/05 09:48:38;;;;;;;26.23;23.88;;;;;;;;;;5075152;28;20199;-79
2022/02/05 09:51:15;;;;;;;26.60;24.50;;;;;;;;;;5074995;28;20205;-79
2022/02/05 09:53:46;;;;;;;23.60;22.13;;;;;;;;;;5073395;28;20204;-79
2022/02/05 09:56:13;;;;;;;23.58;21.83;;;;;;;;;;5074688;28;20288;-82
2022/02/05 09:58:41;;;;;;;24.27;22.38;;;;;;;;;;5074772;28;20327;-82
2022/02/05 10:01:13;;;;;;;23.98;22.33;;;;;;;;;;5075031;28;20220;-79
2022/02/05 10:03:41;;;;;;;23.77;21.98;;;;;;;;;;5074482;28;20194;-79
2022/02/05 10:06:13;;;;;;;22.35;20.77;;;;;;;;;;5069056;28;20906;-80
2022/02/05 10:08:41;;;;;;;21.67;20.45;;;;;;;;;;5063963;28;20194;-80
2022/02/05 10:11:09;;;;;;;21.98;20.58;;;;;;;;;;5055166;28;20542;-80
2022/02/05 10:13:38;;;;;;;26.55;23.77;;;;;;;;;;5065029;28;20186;-80
2022/02/05 10:16:06;;;;;;;23.98;22.27;;;;;;;;;;5064116;28;20186;-79
2022/02/05 10:18:34;;;;;;;22.40;20.90;;;;;;;;;;5063339;28;20552;-80
2022/02/05 10:21:03;;;;;;;22.98;21.20;;;;;;;;;;5061682;28;20249;-80
2022/02/05 10:23:33;;;;;;;21.88;20.40;;;;;;;;;;5065355;28;20193;-79
2022/02/05 10:26:00;;;;;;;22.65;21.38;;;;;;;;;;5059322;28;20262;-80
2022/02/05 10:28:28;;;;;;;24.95;22.73;;;;;;;;;;5054009;28;20650;-80
2022/02/05 10:30:55;;;;;;;24.65;22.92;;;;;;;;;;5054001;28;20199;-80
2022/02/05 10:33:27;;;;;;;22.10;20.60;;;;;;;;;;5052694;28;20224;-79
2022/02/05 10:36:02;;;;;;;24.17;21.88;;;;;;;;;;5053827;28;20191;-79
2022/02/05 10:44:02;;;;;;;24.08;22.15;;;;;;;;;;5053674;28;20209;-79
2022/02/05 10:46:36;;;;;;;24.40;22.60;;;;;;;;;;5054001;28;20195;-80
2022/02/05 10:49:03;;;;;;;25.00;22.60;;;;;;;;;;5052765;28;20226;-78
2022/02/05 10:51:39;;;;;;;22.63;21.08;;;;;;;;;;5053478;28;20194;-79
2022/02/05 10:54:14;;;;;;;25.67;23.85;;;;;;;;;;5053378;28;20200;-79
2022/02/05 10:56:57;;;;;;;27.23;25.40;;;;;;;;;;5053134;28;20225;-78
2022/02/05 10:59:45;;;;;;;25.70;24.05;;;;;;;;;;5053365;28;20720;-77
2022/02/05 11:05:19;;;;;;;25.80;23.17;;;;;;;;;;5053313;28;20750;-79
2022/02/05 11:07:47;;;;;;;22.85;21.17;;;;;;;;;;5053414;28;20200;-78
2022/02/05 11:21:35;;;;;;;22.48;21.08;;;;;;;;;;5110500;27;20556;-78
2022/02/05 11:24:04;;;;;;;23.80;22.30;;;;;;;;;;5110805;28;20198;-79
2022/02/05 11:26:32;;;;;;;25.20;23.25;;;;;;;;;;5110798;28;20230;-79
2022/02/05 11:29:01;;;;;;;23.15;21.65;;;;;;;;;;5110799;28;20279;-78
2022/02/05 11:31:31;;;;;;;23.98;22.25;;;;;;;;;;5110746;28;20236;-78
2022/02/05 11:34:19;;;;;;;23.63;21.85;;;;;;;;;;5110654;28;20563;-79
2022/02/05 11:36:58;;;;;;;24.15;22.08;;;;;;;;;;5110555;28;20194;-77
2022/02/05 11:39:26;;;;;;;22.48;20.95;;;;;;;;;;5110174;28;20667;-77
2022/02/05 11:41:53;;;;;;;26.15;24.00;;;;;;;;;;5110033;28;20219;-77
2022/02/05 11:44:23;;;;;;;25.30;22.75;;;;;;;;;;5110502;28;20252;-76
2022/02/05 11:47:09;;;;;;;25.05;23.40;;;;;;;;;;5110123;28;20637;-77
2022/02/05 11:49:51;;;;;;;22.83;21.17;;;;;;;;;;5109899;28;20642;-77
2022/02/05 11:52:33;;;;;;;24.27;22.58;;;;;;;;;;5109864;28;20244;-78
2022/02/05 11:55:02;;;;;;;24.10;22.60;;;;;;;;;;5109625;28;20263;-77
2022/02/05 11:57:45;;;;;;;23.20;21.80;;;;;;;;;;5110215;28;20187;-78
2022/02/05 12:00:19;;;;;;;23.52;21.85;;;;;;;;;;5109650;28;20231;-76
2022/02/05 12:02:55;;;;;;;24.25;22.65;;;;;;;;;;5110174;28;20195;-76
2022/02/05 12:05:26;;;;;;;24.35;22.60;;;;;;;;;;5110078;28;20190;-76
2022/02/05 12:08:01;;;;;;;24.98;22.40;;;;;;;;;;5109815;28;20191;-77
2022/02/05 12:10:38;;;;;;;24.30;22.48;;;;;;;;;;5110014;28;20194;-77
2022/02/05 12:13:15;;;;;;;23.45;21.83;;;;;;;;;;5109758;28;20199;-77
2022/02/05 12:15:43;;;;;;;24.75;22.85;;;;;;;;;;5109812;28;20281;-76
2022/02/05 12:18:26;;;;;;;23.08;21.60;;;;;;;;;;5109786;28;20887;-76
2022/02/05 12:21:04;;;;;;;25.40;23.40;;;;;;;;;;5109330;28;20261;-76
2022/02/05 12:24:14;;;;;;;22.23;20.80;;;;;;;;;;5109691;28;20202;-76
2022/02/05 12:26:47;;;;;;;22.63;21.13;;;;;;;;;;5109225;28;20207;-76
2022/02/05 12:29:29;;;;;;;24.38;22.75;;;;;;;;;;5109640;28;20187;-76
2022/02/05 12:31:58;;;;;;;33.60;23.50;;;;;;;;;;5101432;28;20248;-76
2022/02/05 12:34:32;;;;;;;24.30;22.60;;;;;;;;;;5095653;28;20441;-76
2022/02/05 12:37:01;;;;;;;25.33;22.95;;;;;;;;;;5095928;28;20191;-76
2022/02/05 12:39:30;;;;;;;24.40;22.45;;;;;;;;;;5095466;28;20795;-74
2022/02/05 12:42:01;;;;;;;24.50;22.75;;;;;;;;;;5095683;28;20227;-75
2022/02/05 12:44:29;;;;;;;23.98;22.15;;;;;;;;;;5095423;28;20190;-77
2022/02/05 12:47:00;;;;;;;24.50;22.75;;;;;;;;;;5094558;28;20188;-75
2022/02/05 12:49:31;;;;;;;23.45;21.90;;;;;;;;;;5095418;28;20187;-75
2022/02/05 12:52:00;;;;;;;22.40;20.75;;;;;;;;;;5095620;28;20194;-76
2022/02/05 12:54:30;;;;;;;24.10;22.42;;;;;;;;;;5095090;28;20609;-76
2022/02/05 12:56:59;;;;;;;23.08;21.15;;;;;;;;;;5095053;28;20249;-76
2022/02/05 12:59:34;;;;;;;24.48;22.42;;;;;;;;;;5095228;28;20199;-76
2022/02/05 13:02:02;;;;;;;25.20;23.00;;;;;;;;;;5095123;28;20233;-76
2022/02/05 13:04:30;;;;;;;25.77;23.40;;;;;;;;;;5093752;28;20672;-76
2022/02/05 13:07:01;;;;;;;26.70;24.02;;;;;;;;;;5095323;28;20312;-76
2022/02/05 13:09:29;;;;;;;25.65;23.77;;;;;;;;;;5094957;28;20601;-77
2022/02/05 13:12:00;;;;;;;25.92;23.90;;;;;;;;;;5094766;28;20195;-77
2022/02/05 13:14:44;;;;;;;24.77;23.08;;;;;;;;;;5095174;28;20267;-75
2022/02/05 13:17:23;;;;;;;25.60;23.60;;;;;;;;;;5095076;28;20199;-78
2022/02/05 13:20:04;;;;;;;23.83;22.33;;;;;;;;;;5094485;28;20708;-76
2022/02/05 13:28:09;;;;;;;23.63;22.02;;;;;;;;;;5092135;28;20712;-78
2022/02/05 13:36:17;;;;;;;23.73;21.73;;;;;;;;;;5032074;28;20258;-78
2022/02/05 13:39:06;;;;;;;25.27;23.10;;;;;;;;;;5032101;28;20671;-78
2022/02/05 13:41:38;;;;;;;23.27;21.77;;;;;;;;;;5031715;28;20508;-78
2022/02/05 13:44:13;;;;;;;22.80;21.33;;;;;;;;;;5031011;28;20233;-78
2022/02/05 13:46:40;;;;;;;23.63;22.15;;;;;;;;;;5031836;28;20932;-78
2022/02/05 13:49:14;;;;;;;23.42;21.63;;;;;;;;;;5031910;28;20197;-77
2022/02/05 13:51:42;;;;;;;23.88;22.25;;;;;;;;;;5031718;28;20189;-76
2022/02/05 13:54:09;;;;;;;24.75;22.92;;;;;;;;;;5031679;28;20185;-78
2022/02/05 13:56:37;;;;;;;23.50;22.10;;;;;;;;;;5031875;28;20189;-78
2022/02/05 13:59:05;;;;;;;24.20;22.40;;;;;;;;;;5031786;28;20201;-78
2022/02/05 14:01:35;;;;;;;24.67;22.85;;;;;;;;;;5031508;28;20220;-79
2022/02/05 14:04:19;;;;;;;24.48;22.30;;;;;;;;;;5031508;28;20216;-78
2022/02/05 14:06:53;;;;;;;23.75;22.23;;;;;;;;;;5031629;28;20193;-82
2022/02/05 14:09:24;;;;;;;25.67;23.10;;;;;;;;;;5031710;28;20194;-82
2022/02/05 14:11:52;;;;;;;24.65;22.67;;;;;;;;;;5058334;28;20457;-79
2022/02/05 14:14:27;;;;;;;22.80;21.20;;;;;;;;;;5093992;28;20199;-79
2022/02/05 14:16:56;;;;;;;25.48;22.75;;;;;;;;;;5093948;28;20191;-78
2022/02/05 14:19:24;;;;;;;24.55;22.90;;;;;;;;;;5093609;28;20183;-78
2022/02/05 14:21:53;;;;;;;24.10;22.50;;;;;;;;;;5093121;28;20210;-81
2022/02/05 14:24:22;;;;;;;23.20;21.63;;;;;;;;;;5091624;28;20416;-79
2022/02/05 14:26:56;;;;;;;24.10;21.95;;;;;;;;;;5092407;28;20463;-80
2022/02/05 14:29:24;;;;;;;24.97;23.10;;;;;;;;;;5093502;28;20191;-79
2022/02/05 14:31:55;;;;;;;25.73;23.83;;;;;;;;;;5092247;28;20518;-79
2022/02/05 14:34:37;;;;;;;25.33;23.47;;;;;;;;;;5094403;28;20420;-82
2022/02/05 14:42:32;;;;;;;25.87;23.47;;;;;;;;;;5092767;28;20230;-80
2022/02/05 14:45:02;;;;;;;24.17;22.63;;;;;;;;;;5093303;28;20416;-81
2022/02/05 14:47:29;;;;;;;24.52;22.73;;;;;;;;;;5093684;28;20657;-82
2022/02/05 14:49:58;;;;;;;24.35;22.60;;;;;;;;;;5093705;28;20187;-82
2022/02/05 14:52:26;;;;;;;25.03;23.07;;;;;;;;;;5092956;28;20298;-81
2022/02/05 14:54:53;;;;;;;25.85;24.00;;;;;;;;;;5092728;28;20417;-83
2022/02/05 14:57:20;;;;;;;87.35;78.75;;;;;;;;;;5093354;28;20198;-81
2022/02/05 14:59:48;;;;;;;23.23;21.63;;;;;;;;;;5091785;28;20542;-81
2022/02/05 15:02:15;;;;;;;206.00;96.13;;;;;;;;;;5093074;28;20219;-81
2022/02/05 15:04:44;;;;;;;310.27;106.43;;;;;;;;;;5093643;28;20242;-81
2022/02/05 15:07:18;;;;;;;27.73;25.73;;;;;;;;;;5093248;28;20196;-81
2022/02/05 15:09:45;;;;;;;25.83;23.88;;;;;;;;;;5093027;28;20416;-79
2022/02/05 15:12:13;;;;;;;23.27;21.40;;;;;;;;;;5092832;28;20266;-78
2022/02/05 15:14:40;;;;;;;24.02;22.13;;;;;;;;;;5092757;28;20198;-77
2022/02/05 15:17:08;;;;;;;24.08;22.48;;;;;;;;;;5093171;28;20191;-79
2022/02/05 15:19:35;;;;;;;22.92;21.52;;;;;;;;;;5092483;28;20285;-79
2022/02/05 15:22:03;;;;;;;26.70;24.73;;;;;;;;;;5091741;28;20215;-79
2022/02/05 15:24:32;;;;;;;24.23;22.27;;;;;;;;;;5092630;28;20187;-78
2022/02/05 15:26:59;;;;;;;26.73;25.00;;;;;;;;;;5092942;28;20199;-78
2022/02/05 15:29:27;;;;;;;24.63;22.90;;;;;;;;;;5092944;28;20214;-78
2022/02/05 15:31:54;;;;;;;25.25;23.50;;;;;;;;;;5092631;28;20246;-78
2022/02/05 15:34:21;;;;;;;25.33;23.70;;;;;;;;;;5092520;28;20230;-78
2022/02/05 15:36:53;;;;;;;24.25;22.40;;;;;;;;;;5092702;28;20211;-78
2022/02/05 15:39:32;;;;;;;25.67;23.80;;;;;;;;;;5092527;28;20287;-78
2022/02/05 15:44:51;;;;;;;22.80;21.50;;;;;;;;;;5029986;28;20211;-78
2022/02/05 15:47:18;;;;;;;22.67;21.00;;;;;;;;;;5029985;28;20481;-78
2022/02/05 15:49:46;;;;;;;22.20;20.63;;;;;;;;;;5030105;28;20264;-78
2022/02/05 15:52:14;;;;;;;23.08;21.63;;;;;;;;;;5013491;28;20641;-78
2022/02/05 15:54:41;;;;;;;22.40;20.80;;;;;;;;;;5029976;28;20274;-78
2022/02/05 15:57:20;;;;;;;22.05;20.35;;;;;;;;;;5030093;28;20418;-78
2022/02/05 16:02:29;;;;;;;22.63;21.02;;;;;;;;;;5029633;28;20241;-78
2022/02/05 16:04:56;;;;;;;23.63;21.73;;;;;;;;;;5030009;28;20201;-78
2022/02/05 16:07:24;;;;;;;313.33;128.18;;;;;;;;;;5032032;28;20197;-78
2022/02/05 16:09:51;;;;;;;24.17;22.63;;;;;;;;;;5033525;28;20600;-78
2022/02/05 16:12:20;;;;;;;24.27;22.45;;;;;;;;;;5016932;28;20661;-78
2022/02/05 16:14:47;;;;;;;22.52;20.92;;;;;;;;;;5017274;28;20206;-78
2022/02/05 16:17:15;;;;;;;23.33;21.52;;;;;;;;;;5033460;28;20548;-78
2022/02/05 16:19:42;;;;;;;20.95;19.48;;;;;;;;;;5033353;28;20582;-78
2022/02/05 16:22:09;;;;;;;21.98;20.67;;;;;;;;;;5082815;28;20235;-78
2022/02/05 16:24:37;;;;;;;23.40;21.70;;;;;;;;;;5096132;28;20195;-78
2022/02/05 16:27:04;;;;;;;22.95;21.00;;;;;;;;;;5096009;28;20545;-78
2022/02/05 16:29:33;;;;;;;23.50;21.90;;;;;;;;;;5096022;28;20277;-78
2022/02/05 16:32:01;;;;;;;22.92;21.15;;;;;;;;;;5095942;28;20440;-78
2022/02/05 16:34:31;;;;;;;23.73;21.95;;;;;;;;;;5095614;28;20187;-78
2022/02/05 16:37:00;;;;;;;21.60;20.40;;;;;;;;;;5095607;28;20192;-78
2022/02/05 16:39:31;;;;;;;21.80;20.40;;;;;;;;;;5095694;28;20203;-78
2022/02/05 16:41:58;;;;;;;22.20;20.80;;;;;;;;;;5095485;28;20549;-78
2022/02/05 16:44:25;;;;;;;21.98;20.48;;;;;;;;;;5095711;28;20214;-78
2022/02/05 16:46:56;;;;;;;23.65;21.83;;;;;;;;;;5095713;28;20191;-82
2022/02/05 16:49:26;;;;;;;22.15;20.10;;;;;;;;;;5095423;28;20245;-78